Time;durP1;ratioP1;P1;durP2;ratioP2;P2;SDS_P1;SDS_P2;PMS_P1;PMS_P2;Temp;Humidity;BMP_temperature;BMP_pressure;BME280_temperature;BME280_humidity;BME280_pressure;Samples;Min_cycle;Max_cycle;Signal;HPM_P1;HPM_P2
2022/10/02 00:00:21;;;;;;;15.63;5.87;;;13.60;99.90;;;;;;5095460;28;20464;-72
2022/10/02 00:02:52;;;;;;;18.03;5.80;;;13.70;99.90;;;;;;5099240;28;20461;-70
2022/10/02 00:05:23;;;;;;;21.83;4.70;;;13.70;99.90;;;;;;5094950;28;20484;-70
2022/10/02 00:07:54;;;;;;;21.70;6.67;;;13.70;99.90;;;;;;5103788;28;20935;-70
2022/10/02 00:10:25;;;;;;;22.83;5.60;;;13.70;99.90;;;;;;5098194;28;20541;-70
2022/10/02 00:12:57;;;;;;;24.00;5.50;;;13.80;99.90;;;;;;5093386;28;20481;-71
2022/10/02 00:15:27;;;;;;;21.87;5.63;;;13.90;99.90;;;;;;5096550;28;20489;-70
2022/10/02 00:17:57;;;;;;;26.87;5.87;;;13.90;99.90;;;;;;5095028;28;20813;-70
2022/10/02 00:20:34;;;;;;;20.37;6.63;;;13.90;99.90;;;;;;5093879;28;20466;-70
2022/10/02 00:23:06;;;;;;;23.47;5.87;;;13.90;99.90;;;;;;5100847;28;20530;-70
2022/10/02 00:25:39;;;;;;;27.73;6.30;;;13.90;99.90;;;;;;5097284;28;20479;-70
2022/10/02 00:28:17;;;;;;;25.30;5.60;;;13.90;99.90;;;;;;5095289;28;20486;-70
2022/10/02 00:30:54;;;;;;;17.53;4.83;;;13.90;99.90;;;;;;5093661;28;20460;-69
2022/10/02 00:33:29;;;;;;;25.87;7.00;;;14.00;99.90;;;;;;5093082;28;20469;-71
2022/10/02 00:36:12;;;;;;;17.87;5.07;;;14.00;99.90;;;;;;5092273;28;21079;-70
2022/10/02 00:38:47;;;;;;;27.33;5.97;;;14.10;99.90;;;;;;5089651;28;20994;-71
2022/10/02 00:41:31;;;;;;;23.90;5.30;;;14.10;99.90;;;;;;5096285;28;20460;-71
2022/10/02 00:44:16;;;;;;;17.87;5.67;;;14.20;99.90;;;;;;5092925;28;20455;-70
2022/10/02 00:46:51;;;;;;;22.33;5.70;;;14.20;99.90;;;;;;5092758;28;20976;-70
2022/10/02 00:49:37;;;;;;;19.23;5.87;;;14.20;99.90;;;;;;5094915;28;20453;-72
2022/10/02 00:52:16;;;;;;;24.83;6.63;;;14.30;99.90;;;;;;5099380;28;21016;-72
2022/10/02 00:54:58;;;;;;;20.73;4.57;;;14.30;99.90;;;;;;5098159;28;20460;-71
2022/10/02 00:57:38;;;;;;;10.87;4.80;;;14.30;99.90;;;;;;5095047;28;20469;-71
2022/10/02 01:00:10;;;;;;;14.87;5.20;;;14.20;99.90;;;;;;5093209;28;20493;-70
2022/10/02 01:02:48;;;;;;;34.83;5.67;;;14.30;99.90;;;;;;5094005;28;20454;-70
2022/10/02 01:05:16;;;;;;;29.20;6.73;;;14.30;99.90;;;;;;5091201;28;20450;-70
2022/10/02 01:07:46;;;;;;;31.80;6.30;;;14.30;99.90;;;;;;5089783;28;20487;-70
2022/10/02 01:10:14;;;;;;;21.87;5.90;;;14.20;99.90;;;;;;5088976;28;20471;-70
2022/10/02 01:12:41;;;;;;;25.87;6.20;;;14.20;99.90;;;;;;5093371;28;21044;-69
2022/10/02 01:15:13;;;;;;;18.07;6.10;;;14.20;99.90;;;;;;5090616;28;20486;-70
2022/10/02 01:17:41;;;;;;;25.33;6.23;;;14.20;99.90;;;;;;5092437;28;20462;-70
2022/10/02 01:20:14;;;;;;;32.90;5.60;;;14.20;99.90;;;;;;5097880;28;20484;-70
2022/10/02 01:22:49;;;;;;;21.30;6.17;;;14.30;99.90;;;;;;5096083;28;20892;-71
2022/10/02 01:25:18;;;;;;;33.70;7.17;;;14.30;99.90;;;;;;5095399;28;20897;-72
2022/10/02 01:27:45;;;;;;;33.40;6.20;;;14.30;99.90;;;;;;5094468;28;20976;-70
2022/10/02 01:30:15;;;;;;;26.00;6.13;;;14.30;99.90;;;;;;5090109;28;20469;-70
2022/10/02 01:32:47;;;;;;;29.97;7.17;;;14.30;99.90;;;;;;5095774;28;20572;-70
2022/10/02 01:35:14;;;;;;;23.07;6.03;;;14.30;99.90;;;;;;5096832;28;20476;-70
2022/10/02 01:37:44;;;;;;;40.00;6.70;;;14.30;99.90;;;;;;5090078;28;20454;-70
2022/10/02 01:40:25;;;;;;;22.30;6.27;;;14.30;99.90;;;;;;5090017;28;20870;-71
2022/10/02 01:42:54;;;;;;;19.73;6.47;;;14.30;99.90;;;;;;5094592;28;20484;-70
2022/10/02 01:45:31;;;;;;;32.20;7.93;;;14.30;99.90;;;;;;5089011;28;20955;-70
2022/10/02 01:48:06;;;;;;;31.50;5.87;;;14.40;99.90;;;;;;5094773;28;20457;-71
2022/10/02 01:50:46;;;;;;;19.93;5.27;;;14.40;99.90;;;;;;5097358;28;20464;-71
2022/10/02 01:53:19;;;;;;;23.33;5.40;;;14.40;99.90;;;;;;5089979;28;20494;-72
2022/10/02 01:55:53;;;;;;;28.13;7.23;;;14.40;99.90;;;;;;5091635;28;21097;-72
2022/10/02 01:58:28;;;;;;;29.77;5.57;;;14.40;99.90;;;;;;5096254;28;20469;-70
2022/10/02 02:01:05;;;;;;;21.27;4.93;;;14.40;99.90;;;;;;5093480;28;20457;-72
2022/10/02 02:03:40;;;;;;;19.53;6.30;;;14.40;99.90;;;;;;5091268;28;20903;-71
2022/10/02 02:06:15;;;;;;;22.43;5.80;;;14.40;99.90;;;;;;5100808;28;20476;-71
2022/10/02 02:08:53;;;;;;;32.23;7.13;;;14.40;99.90;;;;;;5094188;28;20514;-73
2022/10/02 02:11:23;;;;;;;21.70;7.17;;;14.40;99.90;;;;;;5097647;28;20458;-71
2022/10/02 02:13:57;;;;;;;29.93;5.93;;;14.50;99.90;;;;;;5096683;28;20489;-71
2022/10/02 02:16:27;;;;;;;29.13;6.50;;;14.40;99.90;;;;;;5096846;28;20831;-72
2022/10/02 02:18:59;;;;;;;25.00;5.90;;;14.50;99.90;;;;;;5096456;28;20453;-70
2022/10/02 02:21:32;;;;;;;34.93;7.87;;;14.50;99.90;;;;;;5103056;28;20552;-69
2022/10/02 02:24:04;;;;;;;28.33;5.30;;;14.50;99.90;;;;;;5097081;28;20464;-70
2022/10/02 02:26:33;;;;;;;31.93;6.10;;;14.50;99.90;;;;;;5099885;28;20469;-71
2022/10/02 02:29:02;;;;;;;21.80;6.33;;;14.50;99.90;;;;;;5105297;28;20884;-70
2022/10/02 02:31:36;;;;;;;23.43;5.90;;;14.50;99.90;;;;;;5095158;28;20450;-70
2022/10/02 02:34:08;;;;;;;36.67;7.60;;;14.50;99.90;;;;;;5095999;28;20463;-72
2022/10/02 02:36:38;;;;;;;25.27;6.53;;;14.60;99.90;;;;;;5094057;28;20457;-71
2022/10/02 02:39:10;;;;;;;27.37;5.53;;;14.70;99.90;;;;;;5092100;28;20465;-72
2022/10/02 02:41:44;;;;;;;24.40;5.83;;;14.70;99.90;;;;;;5098913;28;20475;-72
2022/10/02 02:44:18;;;;;;;32.90;6.23;;;14.70;99.90;;;;;;5097411;28;20449;-71
2022/10/02 02:47:06;;;;;;;20.00;5.57;;;14.60;99.90;;;;;;5097967;28;20456;-71
2022/10/02 02:49:50;;;;;;;27.80;5.77;;;14.60;99.90;;;;;;5095231;28;20809;-71
2022/10/02 02:52:21;;;;;;;29.70;5.27;;;14.60;99.90;;;;;;5098045;28;20473;-71
2022/10/02 02:54:53;;;;;;;27.00;5.50;;;14.60;99.90;;;;;;5093137;28;20844;-70
2022/10/02 02:57:40;;;;;;;27.17;6.30;;;14.70;99.90;;;;;;5101166;28;20565;-72
2022/10/02 03:00:08;;;;;;;31.40;6.27;;;14.80;99.90;;;;;;5096694;28;20462;-70
2022/10/02 03:02:36;;;;;;;17.63;5.23;;;14.80;99.90;;;;;;5098085;28;20457;-71
2022/10/02 03:05:05;;;;;;;25.33;5.80;;;14.90;99.90;;;;;;5096685;28;20829;-70
2022/10/02 03:07:31;;;;;;;25.57;7.00;;;14.90;99.90;;;;;;5096810;28;20483;-70
2022/10/02 03:10:09;;;;;;;32.83;6.00;;;14.90;99.90;;;;;;5093546;28;20465;-70
2022/10/02 03:12:54;;;;;;;27.83;5.67;;;14.90;99.90;;;;;;5091334;28;20477;-70
2022/10/02 03:15:29;;;;;;;14.90;5.40;;;14.90;99.90;;;;;;5090531;28;20473;-70
2022/10/02 03:18:12;;;;;;;18.80;6.57;;;14.90;99.90;;;;;;5095985;28;20879;-72
2022/10/02 03:20:43;;;;;;;26.27;6.50;;;14.90;99.90;;;;;;5097610;28;20481;-70
2022/10/02 03:23:17;;;;;;;18.53;6.13;;;14.80;99.90;;;;;;5099025;28;20473;-72
2022/10/02 03:25:52;;;;;;;23.07;5.77;;;14.80;99.90;;;;;;5097740;28;20542;-70
2022/10/02 03:28:27;;;;;;;18.93;6.27;;;14.80;99.90;;;;;;5096366;28;20580;-70
2022/10/02 03:30:56;;;;;;;28.07;6.00;;;14.80;99.90;;;;;;5098446;28;20464;-72
2022/10/02 03:33:25;;;;;;;16.17;4.83;;;14.70;99.90;;;;;;5094173;28;20485;-71
2022/10/02 03:35:53;;;;;;;17.20;5.27;;;14.60;99.90;;;;;;5103285;28;20590;-71
2022/10/02 03:38:23;;;;;;;15.97;4.50;;;14.60;99.90;;;;;;5098273;28;20853;-71
2022/10/02 03:40:51;;;;;;;24.67;5.73;;;14.60;99.90;;;;;;5094452;28;20489;-69
2022/10/02 03:43:22;;;;;;;19.20;7.10;;;14.60;99.90;;;;;;5095802;28;20494;-68
2022/10/02 03:45:49;;;;;;;25.60;8.10;;;14.60;99.90;;;;;;5092926;28;20454;-68
2022/10/02 03:48:16;;;;;;;23.30;10.33;;;14.50;99.90;;;;;;5099326;28;20800;-68
2022/10/02 03:50:43;;;;;;;20.97;11.67;;;14.40;99.90;;;;;;5096779;28;20462;-68
2022/10/02 03:53:14;;;;;;;23.80;13.43;;;14.40;99.90;;;;;;5097407;28;20497;-68
2022/10/02 03:55:45;;;;;;;28.20;16.70;;;14.40;99.90;;;;;;5093741;28;20465;-68
2022/10/02 03:58:14;;;;;;;22.67;14.17;;;14.30;99.90;;;;;;5099409;28;20469;-68
2022/10/02 04:00:49;;;;;;;23.47;14.00;;;14.20;99.90;;;;;;5091443;28;20462;-68
2022/10/02 04:03:20;;;;;;;15.70;11.80;;;14.20;99.90;;;;;;5094985;28;20465;-69
2022/10/02 04:05:51;;;;;;;17.83;12.83;;;14.10;99.90;;;;;;5092496;28;20469;-70
2022/10/02 04:08:22;;;;;;;20.53;9.80;;;14.10;99.90;;;;;;5093075;28;20829;-71
2022/10/02 04:10:54;;;;;;;19.97;10.00;;;14.10;99.90;;;;;;5089298;28;20452;-69
2022/10/02 04:13:26;;;;;;;22.23;11.33;;;14.00;99.90;;;;;;5096869;28;20490;-70
2022/10/02 04:16:04;;;;;;;23.87;10.93;;;14.00;99.90;;;;;;5089387;28;21017;-68
2022/10/02 04:18:37;;;;;;;21.90;10.50;;;14.00;99.90;;;;;;5093127;28;20461;-69
2022/10/02 04:21:12;;;;;;;19.37;11.50;;;14.00;99.90;;;;;;5091582;28;20906;-69
2022/10/02 04:23:45;;;;;;;24.50;10.73;;;14.00;99.90;;;;;;5096972;28;20461;-68
2022/10/02 04:26:17;;;;;;;27.13;10.00;;;14.00;99.90;;;;;;5096018;28;20853;-69
2022/10/02 04:28:48;;;;;;;21.93;9.83;;;14.00;99.90;;;;;;5088146;28;20611;-69
2022/10/02 04:31:16;;;;;;;20.90;11.10;;;14.00;99.90;;;;;;5096408;28;21031;-69
2022/10/02 04:33:43;;;;;;;21.17;9.30;;;13.90;99.90;;;;;;5090732;28;21106;-70
2022/10/02 04:36:32;;;;;;;27.67;9.93;;;13.90;99.90;;;;;;5091838;28;20980;-71
2022/10/02 04:39:28;;;;;;;27.10;12.00;;;13.90;99.90;;;;;;5091650;28;20957;-68
2022/10/02 04:42:14;;;;;;;21.67;11.00;;;13.90;99.90;;;;;;5092615;28;20976;-67
2022/10/02 04:44:56;;;;;;;20.73;10.00;;;13.90;99.90;;;;;;5099132;28;20948;-68
2022/10/02 04:47:51;;;;;;;29.50;12.30;;;13.90;99.90;;;;;;5089881;28;20576;-68
2022/10/02 04:50:31;;;;;;;18.93;9.80;;;13.80;99.90;;;;;;5088474;28;20969;-68
2022/10/02 04:53:16;;;;;;;40.80;11.43;;;13.80;99.90;;;;;;5089267;28;21019;-68
2022/10/02 04:55:57;;;;;;;21.60;10.13;;;13.80;99.90;;;;;;5087720;28;20472;-70
2022/10/02 04:58:47;;;;;;;25.33;12.70;;;13.90;99.90;;;;;;5095565;28;20574;-67
2022/10/02 05:01:25;;;;;;;34.73;12.27;;;13.80;99.90;;;;;;5088631;28;20461;-71
2022/10/02 05:04:09;;;;;;;19.07;10.60;;;13.90;99.90;;;;;;5093283;28;20458;-68
2022/10/02 05:06:49;;;;;;;24.40;10.83;;;13.90;99.90;;;;;;5091281;28;20472;-70
2022/10/02 05:09:25;;;;;;;13.23;8.80;;;13.90;99.90;;;;;;5091355;28;20516;-67
2022/10/02 05:12:19;;;;;;;18.60;8.63;;;13.90;99.90;;;;;;5096610;28;20471;-68
2022/10/02 05:15:03;;;;;;;11.77;7.50;;;13.90;99.90;;;;;;5092114;28;20528;-68
2022/10/02 05:17:46;;;;;;;21.03;9.13;;;13.90;99.90;;;;;;5091458;28;20493;-67
2022/10/02 05:20:32;;;;;;;33.80;12.63;;;13.90;99.90;;;;;;5090743;28;20468;-70
2022/10/02 05:23:28;;;;;;;30.07;11.97;;;13.90;99.90;;;;;;5093944;28;20462;-70
2022/10/02 05:26:22;;;;;;;23.33;11.17;;;13.90;99.90;;;;;;5096354;28;20468;-70
2022/10/02 05:29:31;;;;;;;22.30;10.47;;;13.90;99.90;;;;;;5086336;28;21025;-68
2022/10/02 05:32:16;;;;;;;29.00;10.20;;;13.80;99.90;;;;;;5089914;28;20919;-68
2022/10/02 05:35:04;;;;;;;16.93;10.03;;;13.80;99.90;;;;;;5088529;28;21054;-68
2022/10/02 05:37:46;;;;;;;18.30;8.90;;;13.80;99.90;;;;;;5089708;28;20820;-71
2022/10/02 05:40:20;;;;;;;25.33;11.37;;;13.70;99.90;;;;;;5089754;28;20475;-67
2022/10/02 05:42:55;;;;;;;15.80;10.00;;;13.80;99.90;;;;;;5096331;28;20480;-69
2022/10/02 05:45:29;;;;;;;31.87;11.33;;;13.80;99.90;;;;;;5098472;28;20492;-70
2022/10/02 05:48:04;;;;;;;33.43;10.90;;;13.70;99.90;;;;;;5092682;28;20527;-72
2022/10/02 05:50:34;;;;;;;31.87;11.47;;;13.70;99.90;;;;;;5094871;28;20846;-69
2022/10/02 05:53:08;;;;;;;22.03;9.37;;;13.70;99.90;;;;;;5096254;28;20820;-69
2022/10/02 05:55:40;;;;;;;21.93;9.33;;;13.70;99.90;;;;;;5096514;28;20866;-72
2022/10/02 05:58:13;;;;;;;19.87;9.20;;;13.80;99.90;;;;;;5096821;28;20985;-70
2022/10/02 06:00:46;;;;;;;19.97;10.40;;;13.80;99.90;;;;;;5095607;28;21105;-70
2022/10/02 06:03:17;;;;;;;22.77;10.83;;;13.80;99.90;;;;;;5096072;28;20483;-73
2022/10/02 06:05:53;;;;;;;17.00;8.43;;;13.80;99.90;;;;;;5103602;28;20464;-70
2022/10/02 06:08:30;;;;;;;23.10;8.70;;;13.80;99.90;;;;;;5095038;28;20453;-70
2022/10/02 06:11:02;;;;;;;15.80;8.37;;;13.80;99.90;;;;;;5094822;28;20598;-71
2022/10/02 06:13:34;;;;;;;13.13;7.70;;;13.80;99.90;;;;;;5100472;28;20488;-70
2022/10/02 06:16:08;;;;;;;16.63;8.67;;;13.90;99.90;;;;;;5096447;28;20486;-68
2022/10/02 06:18:38;;;;;;;18.63;7.97;;;13.90;99.90;;;;;;5094475;28;20709;-69
2022/10/02 06:21:10;;;;;;;11.20;6.77;;;14.00;99.90;;;;;;5101543;28;20960;-70
2022/10/02 06:23:43;;;;;;;14.87;6.97;;;14.00;99.90;;;;;;5096133;28;20527;-70
2022/10/02 06:26:12;;;;;;;13.17;6.33;;;14.00;99.90;;;;;;5092240;28;20460;-69
2022/10/02 06:28:44;;;;;;;8.47;6.00;;;14.10;99.90;;;;;;5096993;28;21014;-70
2022/10/02 06:31:16;;;;;;;12.13;6.00;;;14.10;99.90;;;;;;5099024;28;20531;-70
2022/10/02 06:33:45;;;;;;;15.80;6.90;;;14.10;99.90;;;;;;5092362;28;20507;-70
2022/10/02 06:37:02;;;;;;;15.40;6.60;;;14.20;99.90;;;;;;5090524;28;20499;-70
2022/10/02 06:39:44;;;;;;;11.20;7.40;;;14.20;99.90;;;;;;5095719;28;20453;-70
2022/10/02 06:42:21;;;;;;;14.73;7.37;;;14.10;99.90;;;;;;5092766;28;20496;-69
2022/10/02 06:44:56;;;;;;;14.30;8.03;;;14.30;99.90;;;;;;5099909;28;20462;-71
2022/10/02 06:47:35;;;;;;;17.07;7.90;;;14.30;99.90;;;;;;5096754;28;20461;-70
2022/10/02 06:50:21;;;;;;;16.57;6.20;;;14.30;99.90;;;;;;5096073;28;20457;-69
2022/10/02 06:52:56;;;;;;;12.50;6.67;;;14.30;99.90;;;;;;5080531;28;20821;-68
2022/10/02 06:55:40;;;;;;;18.70;5.30;;;14.40;99.90;;;;;;5094719;28;20461;-71
2022/10/02 06:58:34;;;;;;;10.80;6.07;;;14.40;99.90;;;;;;5093128;28;20465;-69
2022/10/02 07:01:09;;;;;;;15.17;5.40;;;14.50;99.90;;;;;;5095853;28;21015;-69
2022/10/02 07:03:54;;;;;;;17.97;5.50;;;14.50;99.90;;;;;;5101052;28;20854;-69
2022/10/02 07:06:35;;;;;;;18.03;5.33;;;14.60;99.90;;;;;;5092494;28;20994;-69
2022/10/02 07:09:24;;;;;;;13.53;5.80;;;14.60;99.90;;;;;;5097997;28;20454;-69
2022/10/02 07:12:01;;;;;;;11.43;5.10;;;14.70;99.90;;;;;;5105775;28;20499;-69
2022/10/02 07:14:56;;;;;;;14.73;4.60;;;14.80;99.90;;;;;;5096073;28;20745;-69
2022/10/02 07:17:36;;;;;;;10.20;5.33;;;14.80;99.90;;;;;;5095133;28;20458;-69
2022/10/02 07:20:29;;;;;;;8.20;4.60;;;14.80;99.90;;;;;;5091642;28;20458;-71
2022/10/02 07:23:23;;;;;;;8.90;4.50;;;14.80;99.90;;;;;;5093880;28;20491;-69
2022/10/02 07:26:12;;;;;;;15.80;4.60;;;14.80;99.90;;;;;;5093123;28;20470;-69
2022/10/02 07:28:46;;;;;;;6.53;4.60;;;14.70;99.90;;;;;;5090787;28;20770;-69
2022/10/02 07:31:22;;;;;;;14.73;5.00;;;14.70;99.90;;;;;;5093644;28;20965;-69
2022/10/02 07:34:05;;;;;;;12.67;4.93;;;14.70;99.90;;;;;;5095980;28;20473;-69
2022/10/02 07:36:42;;;;;;;7.50;4.30;;;14.70;99.90;;;;;;5089742;28;20549;-69
2022/10/02 07:39:21;;;;;;;9.77;5.07;;;14.80;99.90;;;;;;5090904;28;20910;-69
2022/10/02 07:42:15;;;;;;;15.73;4.60;;;14.90;99.90;;;;;;5096092;28;20822;-71
2022/10/02 07:45:05;;;;;;;9.67;4.73;;;14.90;99.90;;;;;;5093477;28;20464;-70
2022/10/02 07:47:49;;;;;;;16.00;4.80;;;14.90;99.90;;;;;;5089501;28;20545;-69
2022/10/02 07:50:22;;;;;;;14.90;4.90;;;14.90;99.90;;;;;;5098343;28;20543;-69
2022/10/02 07:52:57;;;;;;;17.90;6.33;;;14.80;99.90;;;;;;5088586;28;20486;-69
2022/10/02 07:55:26;;;;;;;9.50;5.03;;;14.80;99.90;;;;;;5091006;28;20495;-69
2022/10/02 07:58:00;;;;;;;14.40;4.90;;;14.80;99.90;;;;;;5097406;28;20454;-68
2022/10/02 08:00:31;;;;;;;15.07;5.37;;;14.80;99.90;;;;;;5093953;28;20495;-69
2022/10/02 08:03:01;;;;;;;8.43;4.53;;;14.90;99.90;;;;;;5089526;28;20964;-69
2022/10/02 08:05:31;;;;;;;11.07;4.70;;;15.00;99.90;;;;;;5090632;28;20519;-69
2022/10/02 08:08:03;;;;;;;10.67;5.63;;;15.10;99.90;;;;;;5093031;28;20884;-71
2022/10/02 08:10:36;;;;;;;5.77;4.70;;;15.00;99.90;;;;;;5098307;28;20461;-69
2022/10/02 08:13:10;;;;;;;17.60;5.50;;;15.10;99.90;;;;;;5095997;28;20470;-69
2022/10/02 08:15:41;;;;;;;10.70;5.03;;;15.00;99.90;;;;;;5092736;28;20699;-69
2022/10/02 08:18:18;;;;;;;5.30;4.80;;;15.20;99.90;;;;;;5095293;28;20469;-72
2022/10/02 08:20:47;;;;;;;13.63;5.60;;;15.20;99.90;;;;;;5089743;28;21023;-69
2022/10/02 08:23:20;;;;;;;10.97;6.30;;;15.20;99.90;;;;;;5090921;28;20462;-69
2022/10/02 08:25:53;;;;;;;15.10;5.20;;;15.20;99.90;;;;;;5095840;28;21016;-71
2022/10/02 08:28:25;;;;;;;10.40;6.67;;;15.10;99.90;;;;;;5093711;28;20490;-69
2022/10/02 08:30:54;;;;;;;7.73;5.43;;;15.20;99.90;;;;;;5097811;28;20465;-72
2022/10/02 08:33:23;;;;;;;6.30;4.87;;;15.30;99.90;;;;;;5093681;28;20519;-69
2022/10/02 08:36:17;;;;;;;10.67;5.90;;;15.30;99.90;;;;;;5093510;28;20484;-69
2022/10/02 08:38:50;;;;;;;11.70;5.30;;;15.30;99.90;;;;;;5092524;28;20552;-69
2022/10/02 08:41:53;;;;;;;10.30;6.27;;;15.20;99.90;;;;;;5090630;28;20457;-70
2022/10/02 08:44:45;;;;;;;8.90;5.27;;;15.40;99.90;;;;;;5091618;28;20488;-69
2022/10/02 08:47:46;;;;;;;12.50;6.10;;;15.30;99.90;;;;;;5098980;28;20461;-70
2022/10/02 08:50:52;;;;;;;10.03;5.80;;;15.50;99.90;;;;;;5101219;28;20449;-69
2022/10/02 08:53:47;;;;;;;6.80;5.33;;;15.60;99.90;;;;;;5096077;28;20465;-69
2022/10/02 08:56:40;;;;;;;6.73;5.40;;;15.70;99.90;;;;;;5096945;28;21008;-69
2022/10/02 08:59:43;;;;;;;7.60;5.40;;;15.70;99.90;;;;;;5093320;28;20462;-72
2022/10/02 09:02:49;;;;;;;11.63;6.27;;;15.70;99.90;;;;;;5092264;28;20504;-70
2022/10/02 09:05:54;;;;;;;11.17;6.10;;;15.70;99.90;;;;;;5091156;28;20458;-70
2022/10/02 09:09:07;;;;;;;7.10;6.07;;;15.50;99.90;;;;;;5090356;28;21207;-70
2022/10/02 09:12:08;;;;;;;8.60;6.20;;;15.50;99.90;;;;;;5092501;28;20454;-73
2022/10/02 09:14:50;;;;;;;11.63;5.63;;;15.60;99.90;;;;;;5070277;28;20916;-72
2022/10/02 09:17:35;;;;;;;6.63;5.83;;;15.80;99.90;;;;;;5088467;28;20732;-73
2022/10/02 09:20:28;;;;;;;7.10;6.50;;;16.00;99.90;;;;;;5089006;28;20465;-70
2022/10/02 09:23:33;;;;;;;7.77;7.07;;;16.20;99.90;;;;;;5098198;28;20487;-70
2022/10/02 09:26:12;;;;;;;10.10;7.03;;;16.20;99.90;;;;;;5098966;28;20449;-70
2022/10/02 09:29:07;;;;;;;7.33;6.80;;;16.20;99.90;;;;;;5094120;28;20493;-72
2022/10/02 09:32:16;;;;;;;8.43;7.60;;;16.40;99.90;;;;;;5089734;28;20454;-71
2022/10/02 09:35:25;;;;;;;13.20;7.97;;;16.60;99.90;;;;;;5092784;28;20518;-72
2022/10/02 09:38:28;;;;;;;10.97;7.70;;;16.70;99.90;;;;;;5099023;28;20466;-70
2022/10/02 09:41:36;;;;;;;8.00;7.47;;;16.90;99.90;;;;;;5091333;28;20518;-71
2022/10/02 09:44:37;;;;;;;9.07;8.23;;;17.10;99.90;;;;;;5092682;28;20454;-71
2022/10/02 09:47:40;;;;;;;8.93;8.07;;;17.00;99.90;;;;;;5089702;28;20473;-73
2022/10/02 09:50:25;;;;;;;9.90;9.10;;;17.00;99.90;;;;;;5100461;28;20467;-69
2022/10/02 09:53:34;;;;;;;8.43;7.73;;;17.00;99.90;;;;;;5089212;28;20860;-71
2022/10/02 09:56:40;;;;;;;10.23;8.93;;;17.20;99.90;;;;;;5003361;28;20481;-71
2022/10/02 09:59:39;;;;;;;9.30;8.50;;;17.30;99.90;;;;;;4994736;28;20869;-73
2022/10/02 10:02:31;;;;;;;10.63;9.63;;;17.40;99.90;;;;;;5082948;28;20454;-70
2022/10/02 10:05:39;;;;;;;11.57;10.30;;;17.10;99.90;;;;;;5076647;28;21117;-72
2022/10/02 10:08:30;;;;;;;13.23;9.40;;;17.00;99.90;;;;;;5094164;28;20803;-72
2022/10/02 10:11:20;;;;;;;10.90;9.90;;;17.10;99.90;;;;;;5093365;28;20462;-71
2022/10/02 10:14:11;;;;;;;10.67;9.70;;;17.00;99.90;;;;;;5091270;28;20458;-72
2022/10/02 10:17:08;;;;;;;12.80;9.57;;;17.20;99.90;;;;;;5089844;28;20520;-71
2022/10/02 10:19:58;;;;;;;11.60;9.70;;;17.00;99.90;;;;;;5088282;28;20458;-67
2022/10/02 10:22:57;;;;;;;13.43;9.37;;;17.10;99.90;;;;;;5089468;28;20529;-68
2022/10/02 10:25:49;;;;;;;12.33;9.37;;;17.40;99.90;;;;;;5047080;28;20548;-69
2022/10/02 10:29:06;;;;;;;10.47;9.33;;;17.70;99.90;;;;;;5086895;28;20476;-69
2022/10/02 10:32:11;;;;;;;10.10;9.30;;;17.90;99.90;;;;;;5097735;28;20451;-69
2022/10/02 10:35:25;;;;;;;11.43;10.33;;;18.10;99.90;;;;;;5095715;28;20574;-69
2022/10/02 10:41:24;;;;;;;14.00;10.83;;;18.50;99.90;;;;;;5091870;28;20598;-70
2022/10/02 10:44:18;;;;;;;12.10;10.40;;;18.70;99.90;;;;;;5093445;28;20461;-68
2022/10/02 10:47:17;;;;;;;12.13;10.97;;;18.60;99.90;;;;;;5094076;28;20466;-71
2022/10/02 10:50:06;;;;;;;12.53;11.07;;;19.00;99.90;;;;;;5076779;28;20455;-69
2022/10/02 10:53:03;;;;;;;13.63;10.67;;;19.00;99.90;;;;;;5078449;28;21236;-71
2022/10/02 10:55:53;;;;;;;12.30;11.20;;;19.70;99.90;;;;;;5096928;28;21011;-72
2022/10/02 10:58:32;;;;;;;13.20;12.10;;;19.80;99.90;;;;;;5089048;28;20579;-71
2022/10/02 11:01:13;;;;;;;13.40;12.40;;;20.20;99.90;;;;;;5092963;28;20556;-69
2022/10/02 11:04:13;;;;;;;13.40;12.27;;;19.90;99.90;;;;;;5089362;28;20465;-69
2022/10/02 11:07:15;;;;;;;13.57;12.30;;;19.10;99.90;;;;;;5091456;28;20458;-71
2022/10/02 11:10:06;;;;;;;12.87;12.00;;;18.80;99.90;;;;;;5092899;28;20454;-70
2022/10/02 11:13:02;;;;;;;13.10;11.90;;;18.40;99.90;;;;;;5091782;28;20612;-72
2022/10/02 11:16:07;;;;;;;12.43;11.60;;;18.20;99.90;;;;;;5052596;28;20504;-69
2022/10/02 11:19:03;;;;;;;15.37;11.10;;;18.00;99.90;;;;;;5096034;28;20468;-72
2022/10/02 11:22:07;;;;;;;12.87;11.97;;;17.90;99.90;;;;;;5091019;28;20461;-71
2022/10/02 11:24:50;;;;;;;13.47;12.00;;;18.00;99.90;;;;;;5051840;28;20880;-68
2022/10/02 11:27:39;;;;;;;16.53;12.80;;;18.00;99.90;;;;;;5094219;28;20882;-71
2022/10/02 11:30:19;;;;;;;13.80;12.40;;;17.90;99.90;;;;;;5089262;28;20466;-70
2022/10/02 11:33:14;;;;;;;14.50;13.07;;;18.20;99.90;;;;;;5092279;28;20464;-69
2022/10/02 11:36:14;;;;;;;13.63;12.33;;;18.80;99.90;;;;;;5066788;28;20489;-72
2022/10/02 11:39:05;;;;;;;14.63;13.23;;;18.90;99.90;;;;;;5089769;28;20465;-72
2022/10/02 11:41:58;;;;;;;17.03;13.20;;;19.00;99.90;;;;;;5090430;28;20470;-72
2022/10/02 11:44:46;;;;;;;18.97;14.20;;;19.40;99.90;;;;;;5083013;28;20458;-69
2022/10/02 11:47:33;;;;;;;14.93;13.30;;;19.70;99.90;;;;;;5094582;28;20955;-71
2022/10/02 11:50:37;;;;;;;14.50;13.33;;;19.80;99.90;;;;;;5091295;28;20458;-69
2022/10/02 11:53:28;;;;;;;13.63;12.90;;;19.80;99.90;;;;;;5094295;28;20465;-70
2022/10/02 11:56:29;;;;;;;15.50;13.70;;;19.90;99.90;;;;;;5091537;28;20849;-69
2022/10/02 11:59:17;;;;;;;18.90;15.27;;;19.40;99.90;;;;;;5095117;28;20869;-68
2022/10/02 12:01:51;;;;;;;14.57;13.27;;;19.00;99.90;;;;;;5089873;28;20856;-70
2022/10/02 12:04:29;;;;;;;15.30;14.10;;;19.00;99.90;;;;;;5095693;28;20458;-69
2022/10/02 12:07:19;;;;;;;17.60;13.90;;;19.10;99.90;;;;;;5086974;28;20547;-69
2022/10/02 12:09:56;;;;;;;15.80;14.07;;;19.30;99.90;;;;;;5096633;28;20978;-68
2022/10/02 12:12:35;;;;;;;14.13;12.93;;;19.80;99.90;;;;;;5094633;28;20457;-69
2022/10/02 12:15:14;;;;;;;14.20;13.13;;;20.30;99.90;;;;;;5097648;28;20536;-69
2022/10/02 12:18:04;;;;;;;16.47;14.07;;;20.50;99.90;;;;;;5091605;28;20863;-69
2022/10/02 12:27:02;;;;;;;17.30;13.80;;;21.20;99.90;;;;;;5090944;28;20915;-71
2022/10/02 12:29:40;;;;;;;15.07;13.77;;;20.90;99.90;;;;;;5094508;28;20542;-71
2022/10/02 12:32:21;;;;;;;14.23;13.13;;;20.80;99.90;;;;;;5093537;28;20826;-68
2022/10/02 12:35:00;;;;;;;14.30;13.43;;;20.90;99.90;;;;;;5092617;28;20446;-68
2022/10/02 12:37:32;;;;;;;15.33;14.13;;;20.80;99.90;;;;;;5091769;28;20504;-69
2022/10/02 12:40:05;;;;;;;14.97;13.97;;;20.50;99.90;;;;;;5090134;28;20458;-68
2022/10/02 12:43:02;;;;;;;14.70;13.60;;;20.00;99.90;;;;;;5091830;28;20450;-68
2022/10/02 12:45:50;;;;;;;14.90;13.63;;;20.00;99.90;;;;;;5070551;28;21095;-71
2022/10/02 12:48:39;;;;;;;15.00;13.70;;;20.40;99.90;;;;;;5087820;28;20936;-69
2022/10/02 12:51:32;;;;;;;15.57;14.13;;;20.70;99.90;;;;;;5091134;28;20465;-69
2022/10/02 12:54:22;;;;;;;14.53;13.40;;;21.00;99.90;;;;;;5095203;28;20470;-69
2022/10/02 12:57:10;;;;;;;15.17;13.97;;;21.20;99.90;;;;;;5089585;28;20490;-69
2022/10/02 12:59:48;;;;;;;15.70;14.30;;;21.70;99.90;;;;;;5092174;28;20534;-71
2022/10/02 13:03:08;;;;;;;14.90;13.80;;;21.90;99.90;;;;;;5093536;28;20457;-69
2022/10/02 13:06:06;;;;;;;15.67;14.57;;;21.80;99.90;;;;;;5091205;28;20458;-68
2022/10/02 13:08:53;;;;;;;17.27;15.67;;;21.80;99.90;;;;;;5090415;28;20450;-69
2022/10/02 13:11:32;;;;;;;17.00;15.20;;;22.00;99.90;;;;;;5087301;28;20503;-69
2022/10/02 13:14:19;;;;;;;15.90;14.30;;;21.60;99.90;;;;;;5091360;28;20817;-72
2022/10/02 13:17:09;;;;;;;18.03;15.20;;;21.40;99.90;;;;;;5088883;28;21020;-69
2022/10/02 13:19:46;;;;;;;17.63;15.93;;;21.10;99.90;;;;;;5092129;28;20877;-69
2022/10/02 13:22:23;;;;;;;17.33;14.77;;;21.10;99.90;;;;;;5089538;28;20461;-72
2022/10/02 13:25:03;;;;;;;16.00;14.77;;;20.80;99.90;;;;;;5091204;28;20972;-69
2022/10/02 13:27:39;;;;;;;15.63;14.37;;;21.10;99.90;;;;;;5095891;28;20744;-71
2022/10/02 13:30:14;;;;;;;18.10;14.40;;;21.20;99.90;;;;;;5089123;28;20464;-70
2022/10/02 13:32:58;;;;;;;16.63;15.27;;;20.70;99.90;;;;;;5089082;28;20457;-70
2022/10/02 13:35:45;;;;;;;19.93;14.97;;;20.60;99.90;;;;;;5087452;28;20510;-71
2022/10/02 13:38:50;;;;;;;15.40;14.27;;;20.60;99.90;;;;;;5088291;28;20483;-71
2022/10/02 13:41:31;;;;;;;15.10;13.87;;;20.60;99.90;;;;;;5083236;28;20812;-69
2022/10/02 13:44:11;;;;;;;16.33;14.77;;;20.40;99.90;;;;;;5090535;28;20468;-70
2022/10/02 13:46:55;;;;;;;16.20;14.87;;;20.70;99.90;;;;;;5089839;28;20561;-71
2022/10/02 13:49:34;;;;;;;15.87;14.17;;;20.90;99.90;;;;;;5089291;28;20478;-69
2022/10/02 13:52:13;;;;;;;16.37;15.10;;;21.20;99.90;;;;;;5088301;28;20464;-69
2022/10/02 13:55:05;;;;;;;16.97;15.47;;;20.80;99.90;;;;;;5090599;28;20458;-70